TENO2: Tenkiller Lake

Data processed at Sat Dec 09 2017 23:31


All information presented herein is the property of the government of the United States of America and may be revised or deleted at any time without prior notice.
Dissemination of this information without the expressed written consent of the Public Affairs Office, Tulsa District U.S. Army Corps of Engineers is strictly prohibited.
These data are gathered electronically and, as presented, have not undergone any form of quality control. These data are not guaranteed to be valid or correct.
Go to home page.
Go to station list.

Upstream stations:

Downstream station:
Previous Day
Next Day
Current Day
    
SHEF ID:       TENO2     Tenkiller Lake
STATION TYPE:  Reservoir
Normal Pool:  Bottom =   594.50, Top =   632.00

               PRECIP PRECIP(A) ELEVATION   STORAGE   TW-ELEV    INFLOW   RELEASE  AIR-TEMP  WIND-DIRWIND-SPEED REL-HUMID SOLAR-RAD   VOLTAGE  BAT-LOAD
                   in        in        ft     ac-ft        ft       cfs       cfs         F       deg       mph         %      W/m2      volt      volt
              Ccp-Rev   Ccp-Rev   Ccp-Rev   Ccp-Rev   Ccp-Rev  Regi-Rev  Regi-Rev   Ccp-Rev   Ccp-Rev   Ccp-Rev   Ccp-Rev   Ccp-Rev   Ccp-Rev   Ccp-Rev
(US/Central)
12/07 00:00      0.00      0.00    629.60    637782    482.07       100         0     31.75    149.70      0.39     95.35      1.00     13.75     13.12
12/07 01:00      0.00      0.00    629.59    637658    482.05       200         0     30.22    150.70      0.39     92.91      1.00     13.75     13.18
12/07 02:00      0.00      0.00    629.61    637906    482.04       300         0     36.14    190.80      0.16     71.97      0.00     13.75     13.18
12/07 03:00      0.00      0.00    629.62    638030    482.04       340         0     37.58    196.50      2.49     59.88      1.00     13.75     13.18
12/07 04:00      0.00      0.00    629.61    637906    482.04       368         0     34.83    208.00      3.45     70.14      1.00     13.75     13.12
12/07 05:00      0.00      0.00    629.64    638278    482.04       272         0     32.63    209.50      4.01     65.01      0.00     13.74     13.18
12/07 06:00      0.00      0.00    629.58    637534    483.35       175         0     30.76    198.90      4.15     65.93      0.00     13.75     13.18
12/07 07:00      0.00      0.00    629.58    637534    486.99        75      3600     29.12    213.30      4.25     63.48      1.00     13.74     13.18
12/07 08:00      0.00      0.00    629.57    637410    487.07        35      3600     27.36    215.50      5.01     67.76      8.00     13.74     13.18
12/07 09:00      0.00      0.00    629.53    636915    487.11         7      3600     28.13    206.90      5.08     61.04    107.00     13.74     13.12
12/07 10:00      0.00      0.00    629.50    636543    487.05         4      3600     29.77    190.90      4.35     56.40    349.00     13.74     13.12
12/07 11:00      0.00      0.00    629.49    636419    486.40         0      3600     31.64    180.60      3.59     52.07    452.00     13.74     13.12
12/07 12:00      0.00      0.00    629.50    636543    482.52         0         0     32.74    191.40      4.74     46.27    545.00     13.74     13.18
12/07 13:00      0.00      0.00    629.47    636171    482.15         0         0     34.61    189.50      3.70     38.64    365.00     13.74     13.18
12/07 14:00      0.00      0.00    629.47    636171    482.10         0         0     36.03    191.50      4.22     37.42    490.00     13.74     13.18
12/07 15:00      0.00      0.00    629.50    636543    482.07       130         0     36.36    181.30      4.01     32.66    389.00     13.74     13.18
12/07 16:00      0.00      0.00    629.47    636171    482.07       260         0     36.03    201.40      3.90     34.12    244.00     13.74     13.18
12/07 17:00      0.00      0.00    629.49    636419    483.54       277         0     34.39    213.50      3.93     35.47     40.00     13.74     13.18
12/07 18:00      0.00      0.00    629.46    636047    486.89       278      3600     33.94    220.80      3.32     41.39      1.00     13.74     13.24
12/07 19:00      0.00      0.00    629.44    635799    487.02       280      3600     32.07    254.70      2.18     41.94      1.00     13.74     13.18
12/07 20:00      0.00      0.00    629.41    635428    487.09       149      3600     31.21    283.90      0.90     49.81      1.00     13.74     13.18
12/07 21:00      0.00      0.00    629.38    635056    486.51        19      3600     29.34    287.80      1.08     60.55      0.00     13.74     13.18
12/07 22:00      0.00      0.00    629.40    635304    482.50         3         0     27.90    281.00      0.60     71.05      0.00     13.75     13.12
12/07 23:00      0.00      0.00    629.38    635056    482.14         4         0     24.28    277.70      0.78     77.46      0.00     13.75     13.12